sensor_id;sensor_type;location;lat;lon;timestamp;noise_LAeq;noise_LA_min;noise_LA_max;noise_LA01;noise_LA95
72686;Laerm;61365;52.162;4.500;2023-03-01T00:01:21;46.81;37.26;58.28;;
72686;Laerm;61365;52.162;4.500;2023-03-01T00:03:48;46.91;36.80;58.96;;
72686;Laerm;61365;52.162;4.500;2023-03-01T00:06:14;46.75;36.79;58.03;;
72686;Laerm;61365;52.162;4.500;2023-03-01T00:08:41;46.81;36.60;57.48;;
72686;Laerm;61365;52.162;4.500;2023-03-01T00:11:20;46.77;37.05;56.86;;
72686;Laerm;61365;52.162;4.500;2023-03-01T00:13:51;46.78;36.32;57.08;;
72686;Laerm;61365;52.162;4.500;2023-03-01T00:16:26;46.67;36.93;58.02;;
72686;Laerm;61365;52.162;4.500;2023-03-01T00:18:57;46.73;36.61;56.94;;
72686;Laerm;61365;52.162;4.500;2023-03-01T00:21:24;46.59;36.88;57.04;;
72686;Laerm;61365;52.162;4.500;2023-03-01T00:23:52;46.71;36.95;58.39;;
72686;Laerm;61365;52.162;4.500;2023-03-01T00:26:21;46.66;36.78;57.78;;
72686;Laerm;61365;52.162;4.500;2023-03-01T00:28:48;46.66;37.01;58.56;;
72686;Laerm;61365;52.162;4.500;2023-03-01T00:31:20;46.67;36.97;57.13;;
72686;Laerm;61365;52.162;4.500;2023-03-01T00:33:47;46.71;36.11;58.61;;
72686;Laerm;61365;52.162;4.500;2023-03-01T00:36:15;46.74;37.16;58.26;;
72686;Laerm;61365;52.162;4.500;2023-03-01T00:38:45;46.53;35.67;58.86;;
72686;Laerm;61365;52.162;4.500;2023-03-01T00:41:15;46.65;37.06;58.12;;
72686;Laerm;61365;52.162;4.500;2023-03-01T00:43:44;45.86;36.89;57.88;;
72686;Laerm;61365;52.162;4.500;2023-03-01T00:46:18;45.56;36.69;58.08;;
72686;Laerm;61365;52.162;4.500;2023-03-01T00:48:45;45.63;37.13;58.37;;
72686;Laerm;61365;52.162;4.500;2023-03-01T00:51:20;45.64;36.68;58.60;;
72686;Laerm;61365;52.162;4.500;2023-03-01T00:53:50;45.39;36.93;58.29;;
72686;Laerm;61365;52.162;4.500;2023-03-01T00:56:17;45.43;36.71;58.49;;
72686;Laerm;61365;52.162;4.500;2023-03-01T00:58:43;45.68;37.19;61.34;;
72686;Laerm;61365;52.162;4.500;2023-03-01T01:01:17;45.72;37.43;63.23;;
72686;Laerm;61365;52.162;4.500;2023-03-01T01:04:09;45.69;36.95;61.62;;
72686;Laerm;61365;52.162;4.500;2023-03-01T01:06:42;45.58;37.25;58.47;;
72686;Laerm;61365;52.162;4.500;2023-03-01T01:09:14;45.61;36.59;58.37;;
72686;Laerm;61365;52.162;4.500;2023-03-01T01:11:50;45.78;37.29;58.11;;
72686;Laerm;61365;52.162;4.500;2023-03-01T01:14:18;45.56;37.67;58.91;;
72686;Laerm;61365;52.162;4.500;2023-03-01T01:16:45;45.55;36.60;58.04;;
72686;Laerm;61365;52.162;4.500;2023-03-01T01:19:12;45.47;36.35;57.86;;
72686;Laerm;61365;52.162;4.500;2023-03-01T01:21:40;45.54;37.08;58.01;;
72686;Laerm;61365;52.162;4.500;2023-03-01T01:24:09;45.61;36.31;62.95;;
72686;Laerm;61365;52.162;4.500;2023-03-01T01:26:36;45.34;36.94;58.68;;
72686;Laerm;61365;52.162;4.500;2023-03-01T01:29:04;45.59;36.46;57.79;;
72686;Laerm;61365;52.162;4.500;2023-03-01T01:31:33;45.62;36.39;63.09;;
72686;Laerm;61365;52.162;4.500;2023-03-01T01:34:03;45.52;37.08;60.75;;
72686;Laerm;61365;52.162;4.500;2023-03-01T01:36:31;45.30;37.14;60.21;;
72686;Laerm;61365;52.162;4.500;2023-03-01T01:38:57;46.00;37.16;57.79;;
72686;Laerm;61365;52.162;4.500;2023-03-01T01:41:27;46.73;36.24;56.99;;
72686;Laerm;61365;52.162;4.500;2023-03-01T01:44:18;46.71;35.31;61.21;;
72686;Laerm;61365;52.162;4.500;2023-03-01T01:47:00;46.74;37.18;58.31;;
72686;Laerm;61365;52.162;4.500;2023-03-01T01:52:24;46.70;36.85;57.53;;
72686;Laerm;61365;52.162;4.500;2023-03-01T01:55:02;46.86;37.41;57.67;;
72686;Laerm;61365;52.162;4.500;2023-03-01T01:57:39;46.66;34.15;62.38;;
72686;Laerm;61365;52.162;4.500;2023-03-01T02:00:14;46.84;36.54;57.30;;
72686;Laerm;61365;52.162;4.500;2023-03-01T02:02:43;47.00;37.22;58.65;;
72686;Laerm;61365;52.162;4.500;2023-03-01T02:08:23;45.46;36.93;57.64;;
72686;Laerm;61365;52.162;4.500;2023-03-01T02:10:52;45.55;37.30;57.84;;
72686;Laerm;61365;52.162;4.500;2023-03-01T02:13:20;46.22;37.31;58.47;;
72686;Laerm;61365;52.162;4.500;2023-03-01T02:15:47;46.61;37.27;57.58;;
72686;Laerm;61365;52.162;4.500;2023-03-01T02:18:21;46.84;36.64;58.70;;
72686;Laerm;61365;52.162;4.500;2023-03-01T02:23:43;46.80;37.09;57.41;;
72686;Laerm;61365;52.162;4.500;2023-03-01T02:29:03;46.88;37.06;58.09;;
72686;Laerm;61365;52.162;4.500;2023-03-01T02:31:32;46.77;36.76;57.34;;
72686;Laerm;61365;52.162;4.500;2023-03-01T02:34:16;46.94;37.09;58.63;;
72686;Laerm;61365;52.162;4.500;2023-03-01T02:36:54;46.81;35.29;57.33;;
72686;Laerm;61365;52.162;4.500;2023-03-01T02:39:33;46.83;36.98;57.81;;
72686;Laerm;61365;52.162;4.500;2023-03-01T02:42:02;46.86;37.01;57.86;;
72686;Laerm;61365;52.162;4.500;2023-03-01T02:44:30;46.90;37.36;58.19;;
72686;Laerm;61365;52.162;4.500;2023-03-01T02:47:01;46.87;37.58;58.13;;
72686;Laerm;61365;52.162;4.500;2023-03-01T02:49:33;46.92;37.13;58.03;;
72686;Laerm;61365;52.162;4.500;2023-03-01T02:52:46;46.80;36.49;57.41;;
72686;Laerm;61365;52.162;4.500;2023-03-01T02:55:17;46.84;36.85;57.45;;
72686;Laerm;61365;52.162;4.500;2023-03-01T02:57:47;46.82;37.17;58.01;;
72686;Laerm;61365;52.162;4.500;2023-03-01T03:00:32;46.82;36.95;58.34;;
72686;Laerm;61365;52.162;4.500;2023-03-01T03:03:01;46.83;34.55;62.34;;
72686;Laerm;61365;52.162;4.500;2023-03-01T03:05:30;46.69;36.64;59.93;;
72686;Laerm;61365;52.162;4.500;2023-03-01T03:08:00;45.60;36.98;58.70;;
72686;Laerm;61365;52.162;4.500;2023-03-01T03:10:33;45.58;37.16;57.95;;
72686;Laerm;61365;52.162;4.500;2023-03-01T03:13:07;45.59;36.85;58.53;;
72686;Laerm;61365;52.162;4.500;2023-03-01T03:15:34;45.51;36.43;58.57;;
72686;Laerm;61365;52.162;4.500;2023-03-01T03:18:09;45.47;36.76;58.15;;
72686;Laerm;61365;52.162;4.500;2023-03-01T03:20:38;45.44;36.98;57.81;;
72686;Laerm;61365;52.162;4.500;2023-03-01T03:23:05;45.61;36.55;58.67;;
72686;Laerm;61365;52.162;4.500;2023-03-01T03:25:32;45.50;37.11;58.06;;
72686;Laerm;61365;52.162;4.500;2023-03-01T03:27:59;45.59;37.39;60.11;;
72686;Laerm;61365;52.162;4.500;2023-03-01T03:30:29;45.70;37.14;58.03;;
72686;Laerm;61365;52.162;4.500;2023-03-01T03:32:57;45.48;36.78;57.85;;
72686;Laerm;61365;52.162;4.500;2023-03-01T03:35:38;45.69;36.89;58.76;;
72686;Laerm;61365;52.162;4.500;2023-03-01T03:38:09;45.57;36.72;57.78;;
72686;Laerm;61365;52.162;4.500;2023-03-01T03:40:48;45.42;37.01;58.32;;
72686;Laerm;61365;52.162;4.500;2023-03-01T03:43:21;45.52;36.48;57.94;;
72686;Laerm;61365;52.162;4.500;2023-03-01T03:45:50;45.36;36.76;57.24;;
72686;Laerm;61365;52.162;4.500;2023-03-01T03:48:18;45.51;36.66;58.74;;
72686;Laerm;61365;52.162;4.500;2023-03-01T03:50:52;46.02;36.75;59.29;;
72686;Laerm;61365;52.162;4.500;2023-03-01T03:53:21;46.75;36.97;57.63;;
72686;Laerm;61365;52.162;4.500;2023-03-01T03:55:48;46.87;36.14;57.19;;
72686;Laerm;61365;52.162;4.500;2023-03-01T03:58:22;46.80;37.27;58.45;;
72686;Laerm;61365;52.162;4.500;2023-03-01T04:00:56;46.68;37.30;57.87;;
72686;Laerm;61365;52.162;4.500;2023-03-01T04:03:25;46.72;36.67;57.26;;
72686;Laerm;61365;52.162;4.500;2023-03-01T04:05:52;46.67;37.25;59.21;;
72686;Laerm;61365;52.162;4.500;2023-03-01T04:08:21;46.68;37.00;57.38;;
72686;Laerm;61365;52.162;4.500;2023-03-01T04:10:51;46.71;36.56;58.58;;
72686;Laerm;61365;52.162;4.500;2023-03-01T04:13:22;46.60;36.87;58.26;;
72686;Laerm;61365;52.162;4.500;2023-03-01T04:15:53;46.43;36.82;58.97;;
72686;Laerm;61365;52.162;4.500;2023-03-01T04:18:22;46.73;36.93;57.82;;
72686;Laerm;61365;52.162;4.500;2023-03-01T04:20:50;46.64;36.56;56.73;;
72686;Laerm;61365;52.162;4.500;2023-03-01T04:23:21;46.71;36.93;57.84;;
72686;Laerm;61365;52.162;4.500;2023-03-01T04:25:57;46.76;36.93;61.43;;
72686;Laerm;61365;52.162;4.500;2023-03-01T04:28:31;46.64;36.98;57.65;;
72686;Laerm;61365;52.162;4.500;2023-03-01T04:31:09;46.70;37.21;58.84;;
72686;Laerm;61365;52.162;4.500;2023-03-01T04:33:54;46.77;37.22;57.92;;
72686;Laerm;61365;52.162;4.500;2023-03-01T04:36:24;46.77;36.35;57.84;;
72686;Laerm;61365;52.162;4.500;2023-03-01T04:38:51;46.74;37.46;58.60;;
72686;Laerm;61365;52.162;4.500;2023-03-01T04:41:21;46.69;37.56;57.60;;
72686;Laerm;61365;52.162;4.500;2023-03-01T04:43:48;46.76;36.80;57.55;;
72686;Laerm;61365;52.162;4.500;2023-03-01T04:46:18;47.01;36.93;57.53;;
72686;Laerm;61365;52.162;4.500;2023-03-01T04:48:46;46.82;36.88;58.20;;
72686;Laerm;61365;52.162;4.500;2023-03-01T04:51:13;46.80;37.10;57.42;;
72686;Laerm;61365;52.162;4.500;2023-03-01T04:53:41;46.83;37.47;57.51;;
72686;Laerm;61365;52.162;4.500;2023-03-01T04:56:09;46.68;36.56;57.70;;
72686;Laerm;61365;52.162;4.500;2023-03-01T04:58:36;46.76;36.34;57.69;;
72686;Laerm;61365;52.162;4.500;2023-03-01T05:01:10;46.68;37.04;57.11;;
72686;Laerm;61365;52.162;4.500;2023-03-01T05:03:47;46.76;37.00;57.32;;
72686;Laerm;61365;52.162;4.500;2023-03-01T05:06:15;46.66;36.68;59.05;;
72686;Laerm;61365;52.162;4.500;2023-03-01T05:08:43;46.63;36.78;57.76;;
72686;Laerm;61365;52.162;4.500;2023-03-01T05:11:11;46.80;37.61;57.81;;
72686;Laerm;61365;52.162;4.500;2023-03-01T05:13:39;46.66;37.23;59.08;;
72686;Laerm;61365;52.162;4.500;2023-03-01T05:16:08;46.63;36.85;57.56;;
72686;Laerm;61365;52.162;4.500;2023-03-01T05:18:38;46.84;36.95;58.01;;
72686;Laerm;61365;52.162;4.500;2023-03-01T05:21:11;46.81;37.27;58.03;;
72686;Laerm;61365;52.162;4.500;2023-03-01T05:23:38;46.61;36.82;57.90;;
72686;Laerm;61365;52.162;4.500;2023-03-01T05:26:06;46.90;36.75;57.89;;
72686;Laerm;61365;52.162;4.500;2023-03-01T05:28:33;46.64;37.10;57.53;;
72686;Laerm;61365;52.162;4.500;2023-03-01T05:31:00;46.63;37.00;58.56;;
72686;Laerm;61365;52.162;4.500;2023-03-01T05:33:27;46.48;36.77;57.63;;
72686;Laerm;61365;52.162;4.500;2023-03-01T05:35:54;46.69;37.37;58.21;;
72686;Laerm;61365;52.162;4.500;2023-03-01T05:38:20;46.84;37.29;57.61;;
72686;Laerm;61365;52.162;4.500;2023-03-01T05:40:48;46.84;36.74;57.94;;
72686;Laerm;61365;52.162;4.500;2023-03-01T05:43:16;46.80;36.94;57.88;;
72686;Laerm;61365;52.162;4.500;2023-03-01T05:45:44;46.92;36.87;57.61;;
72686;Laerm;61365;52.162;4.500;2023-03-01T05:48:12;46.69;36.62;59.24;;
72686;Laerm;61365;52.162;4.500;2023-03-01T05:50:44;46.69;37.27;57.25;;
72686;Laerm;61365;52.162;4.500;2023-03-01T05:53:14;46.77;37.30;59.07;;
72686;Laerm;61365;52.162;4.500;2023-03-01T05:55:42;46.81;37.32;59.05;;
72686;Laerm;61365;52.162;4.500;2023-03-01T05:58:17;46.84;37.56;57.26;;
72686;Laerm;61365;52.162;4.500;2023-03-01T06:00:46;46.81;37.25;57.04;;
72686;Laerm;61365;52.162;4.500;2023-03-01T06:03:16;46.79;36.45;58.78;;
72686;Laerm;61365;52.162;4.500;2023-03-01T06:05:43;46.53;36.49;57.63;;
72686;Laerm;61365;52.162;4.500;2023-03-01T06:08:13;46.77;37.04;57.62;;
72686;Laerm;61365;52.162;4.500;2023-03-01T06:10:40;46.66;36.99;57.53;;
72686;Laerm;61365;52.162;4.500;2023-03-01T06:13:06;46.93;37.46;58.32;;
72686;Laerm;61365;52.162;4.500;2023-03-01T06:15:33;46.79;37.33;58.37;;
72686;Laerm;61365;52.162;4.500;2023-03-01T06:17:59;46.72;37.09;57.62;;
72686;Laerm;61365;52.162;4.500;2023-03-01T06:20:28;46.77;36.66;58.23;;
72686;Laerm;61365;52.162;4.500;2023-03-01T06:22:55;46.73;36.99;59.30;;
72686;Laerm;61365;52.162;4.500;2023-03-01T06:25:24;46.80;37.13;58.24;;
72686;Laerm;61365;52.162;4.500;2023-03-01T06:27:53;46.73;37.20;57.43;;
72686;Laerm;61365;52.162;4.500;2023-03-01T06:30:23;46.60;37.18;57.95;;
72686;Laerm;61365;52.162;4.500;2023-03-01T06:32:50;46.73;36.96;57.60;;
72686;Laerm;61365;52.162;4.500;2023-03-01T06:35:18;46.70;36.69;57.50;;
72686;Laerm;61365;52.162;4.500;2023-03-01T06:37:47;46.90;37.68;57.97;;
72686;Laerm;61365;52.162;4.500;2023-03-01T06:40:14;46.83;37.10;57.93;;
72686;Laerm;61365;52.162;4.500;2023-03-01T06:42:46;46.68;37.45;58.41;;
72686;Laerm;61365;52.162;4.500;2023-03-01T06:45:14;46.76;36.91;58.03;;
72686;Laerm;61365;52.162;4.500;2023-03-01T06:47:40;47.02;37.63;57.29;;
72686;Laerm;61365;52.162;4.500;2023-03-01T06:50:08;46.67;36.89;57.23;;
72686;Laerm;61365;52.162;4.500;2023-03-01T06:52:34;46.72;36.35;57.99;;
72686;Laerm;61365;52.162;4.500;2023-03-01T06:55:01;46.86;37.25;58.38;;
72686;Laerm;61365;52.162;4.500;2023-03-01T06:57:27;46.56;37.21;57.59;;
72686;Laerm;61365;52.162;4.500;2023-03-01T06:59:54;46.72;37.23;58.22;;
72686;Laerm;61365;52.162;4.500;2023-03-01T07:02:21;46.85;37.09;58.16;;
72686;Laerm;61365;52.162;4.500;2023-03-01T07:04:52;46.73;37.19;58.58;;
72686;Laerm;61365;52.162;4.500;2023-03-01T07:07:18;46.77;36.64;56.87;;
72686;Laerm;61365;52.162;4.500;2023-03-01T07:09:49;46.82;37.36;58.24;;
72686;Laerm;61365;52.162;4.500;2023-03-01T07:12:16;46.79;36.60;57.12;;
72686;Laerm;61365;52.162;4.500;2023-03-01T07:14:44;46.57;37.06;57.65;;
72686;Laerm;61365;52.162;4.500;2023-03-01T07:17:15;46.90;34.84;62.87;;
72686;Laerm;61365;52.162;4.500;2023-03-01T07:19:42;46.97;36.54;57.34;;
72686;Laerm;61365;52.162;4.500;2023-03-01T07:22:08;46.82;37.24;56.91;;
72686;Laerm;61365;52.162;4.500;2023-03-01T07:24:35;46.61;37.23;56.69;;
72686;Laerm;61365;52.162;4.500;2023-03-01T07:27:02;46.82;36.73;56.97;;
72686;Laerm;61365;52.162;4.500;2023-03-01T07:29:31;46.84;36.43;57.38;;
72686;Laerm;61365;52.162;4.500;2023-03-01T07:31:57;46.94;37.06;57.29;;
72686;Laerm;61365;52.162;4.500;2023-03-01T07:34:27;46.79;36.98;55.99;;
72686;Laerm;61365;52.162;4.500;2023-03-01T07:36:53;46.82;36.86;58.22;;
72686;Laerm;61365;52.162;4.500;2023-03-01T07:39:20;46.89;37.42;58.05;;
72686;Laerm;61365;52.162;4.500;2023-03-01T07:41:49;46.92;36.94;56.52;;
72686;Laerm;61365;52.162;4.500;2023-03-01T07:44:16;46.82;37.51;57.69;;
72686;Laerm;61365;52.162;4.500;2023-03-01T07:46:44;47.00;37.19;56.92;;
72686;Laerm;61365;52.162;4.500;2023-03-01T07:49:13;46.91;36.90;57.59;;
72686;Laerm;61365;52.162;4.500;2023-03-01T07:51:39;46.76;37.17;57.45;;
72686;Laerm;61365;52.162;4.500;2023-03-01T07:54:09;46.92;37.57;57.77;;
72686;Laerm;61365;52.162;4.500;2023-03-01T07:56:35;46.96;37.45;56.37;;
72686;Laerm;61365;52.162;4.500;2023-03-01T07:59:02;47.13;36.85;57.75;;
72686;Laerm;61365;52.162;4.500;2023-03-01T08:01:28;46.03;37.04;58.45;;
72686;Laerm;61365;52.162;4.500;2023-03-01T08:03:55;45.63;37.37;58.94;;
72686;Laerm;61365;52.162;4.500;2023-03-01T08:06:21;45.55;36.93;57.88;;
72686;Laerm;61365;52.162;4.500;2023-03-01T08:08:48;45.51;36.89;57.68;;
72686;Laerm;61365;52.162;4.500;2023-03-01T08:11:14;45.54;37.08;58.14;;
72686;Laerm;61365;52.162;4.500;2023-03-01T08:13:49;45.43;36.91;57.37;;
72686;Laerm;61365;52.162;4.500;2023-03-01T08:16:34;45.58;37.13;58.87;;
72686;Laerm;61365;52.162;4.500;2023-03-01T08:19:09;45.64;36.85;60.32;;
72686;Laerm;61365;52.162;4.500;2023-03-01T08:21:48;45.62;36.68;60.12;;
72686;Laerm;61365;52.162;4.500;2023-03-01T08:24:15;45.61;36.41;61.00;;
72686;Laerm;61365;52.162;4.500;2023-03-01T08:26:42;45.58;36.91;58.18;;
72686;Laerm;61365;52.162;4.500;2023-03-01T08:29:09;45.91;36.89;62.72;;
72686;Laerm;61365;52.162;4.500;2023-03-01T08:31:43;47.09;36.76;56.94;;
72686;Laerm;61365;52.162;4.500;2023-03-01T08:34:18;47.03;36.94;57.22;;
72686;Laerm;61365;52.162;4.500;2023-03-01T08:36:46;47.06;36.18;56.96;;
72686;Laerm;61365;52.162;4.500;2023-03-01T08:39:19;47.02;36.93;57.30;;
72686;Laerm;61365;52.162;4.500;2023-03-01T08:41:55;46.69;37.02;57.67;;
72686;Laerm;61365;52.162;4.500;2023-03-01T08:44:30;46.97;37.31;59.23;;
72686;Laerm;61365;52.162;4.500;2023-03-01T08:47:01;46.96;37.20;60.56;;
72686;Laerm;61365;52.162;4.500;2023-03-01T08:49:31;46.76;37.12;59.35;;
72686;Laerm;61365;52.162;4.500;2023-03-01T08:52:06;46.85;37.16;57.50;;
72686;Laerm;61365;52.162;4.500;2023-03-01T08:54:36;46.97;37.06;57.14;;
72686;Laerm;61365;52.162;4.500;2023-03-01T08:57:03;46.91;37.10;56.60;;
72686;Laerm;61365;52.162;4.500;2023-03-01T08:59:29;46.96;37.21;56.45;;
72686;Laerm;61365;52.162;4.500;2023-03-01T09:01:56;46.86;36.79;57.97;;
72686;Laerm;61365;52.162;4.500;2023-03-01T09:04:23;46.89;36.85;57.31;;
72686;Laerm;61365;52.162;4.500;2023-03-01T09:06:49;46.73;37.18;56.38;;
72686;Laerm;61365;52.162;4.500;2023-03-01T09:09:17;46.74;35.45;56.85;;
72686;Laerm;61365;52.162;4.500;2023-03-01T09:11:45;46.93;36.77;55.87;;
72686;Laerm;61365;52.162;4.500;2023-03-01T09:14:16;46.89;36.60;56.57;;
72686;Laerm;61365;52.162;4.500;2023-03-01T09:16:43;46.77;37.33;57.04;;
72686;Laerm;61365;52.162;4.500;2023-03-01T09:19:09;46.76;37.19;57.28;;
72686;Laerm;61365;52.162;4.500;2023-03-01T09:21:37;46.99;36.06;56.46;;
72686;Laerm;61365;52.162;4.500;2023-03-01T09:24:04;46.96;36.30;59.43;;
72686;Laerm;61365;52.162;4.500;2023-03-01T09:26:31;46.85;36.56;58.15;;
72686;Laerm;61365;52.162;4.500;2023-03-01T09:29:00;46.90;36.86;59.79;;
72686;Laerm;61365;52.162;4.500;2023-03-01T09:31:26;47.04;36.90;56.75;;
72686;Laerm;61365;52.162;4.500;2023-03-01T09:33:53;46.86;36.77;56.51;;
72686;Laerm;61365;52.162;4.500;2023-03-01T09:36:24;47.08;36.75;57.05;;
72686;Laerm;61365;52.162;4.500;2023-03-01T09:38:53;47.00;36.91;57.47;;
72686;Laerm;61365;52.162;4.500;2023-03-01T09:44:38;47.04;36.67;56.79;;
72686;Laerm;61365;52.162;4.500;2023-03-01T09:47:25;46.95;37.10;56.58;;
72686;Laerm;61365;52.162;4.500;2023-03-01T09:52:52;47.04;36.15;58.69;;
72686;Laerm;61365;52.162;4.500;2023-03-01T09:58:47;47.07;37.38;56.99;;
72686;Laerm;61365;52.162;4.500;2023-03-01T10:01:46;47.03;36.46;60.78;;
72686;Laerm;61365;52.162;4.500;2023-03-01T10:04:50;47.12;37.22;58.51;;
72686;Laerm;61365;52.162;4.500;2023-03-01T10:10:07;47.05;37.05;57.00;;
72686;Laerm;61365;52.162;4.500;2023-03-01T10:12:40;46.99;36.09;61.65;;
72686;Laerm;61365;52.162;4.500;2023-03-01T10:15:15;47.16;36.76;57.93;;
72686;Laerm;61365;52.162;4.500;2023-03-01T10:17:56;47.26;36.62;56.32;;
72686;Laerm;61365;52.162;4.500;2023-03-01T10:23:04;47.00;36.75;55.99;;
72686;Laerm;61365;52.162;4.500;2023-03-01T10:31:45;47.08;36.76;57.05;;
72686;Laerm;61365;52.162;4.500;2023-03-01T10:34:19;46.91;37.15;55.86;;
72686;Laerm;61365;52.162;4.500;2023-03-01T10:36:57;47.15;36.92;57.04;;
72686;Laerm;61365;52.162;4.500;2023-03-01T10:39:27;47.28;36.88;56.10;;
72686;Laerm;61365;52.162;4.500;2023-03-01T10:42:02;47.24;36.99;57.61;;
72686;Laerm;61365;52.162;4.500;2023-03-01T10:44:42;47.24;36.80;59.64;;
72686;Laerm;61365;52.162;4.500;2023-03-01T10:47:21;47.26;36.43;58.91;;
72686;Laerm;61365;52.162;4.500;2023-03-01T10:50:04;47.18;37.09;60.30;;
72686;Laerm;61365;52.162;4.500;2023-03-01T10:52:37;46.90;35.92;58.21;;
72686;Laerm;61365;52.162;4.500;2023-03-01T10:57:42;46.94;36.91;57.11;;
72686;Laerm;61365;52.162;4.500;2023-03-01T11:00:25;47.46;37.03;56.34;;
72686;Laerm;61365;52.162;4.500;2023-03-01T11:03:13;47.08;36.65;57.66;;
72686;Laerm;61365;52.162;4.500;2023-03-01T11:06:21;47.20;36.83;57.04;;
72686;Laerm;61365;52.162;4.500;2023-03-01T11:08:49;47.22;36.87;57.96;;
72686;Laerm;61365;52.162;4.500;2023-03-01T11:11:22;46.96;37.32;56.25;;
72686;Laerm;61365;52.162;4.500;2023-03-01T11:16:31;45.84;36.54;58.65;;
72686;Laerm;61365;52.162;4.500;2023-03-01T11:19:19;47.19;37.00;58.90;;
72686;Laerm;61365;52.162;4.500;2023-03-01T11:22:12;47.19;36.50;56.89;;
72686;Laerm;61365;52.162;4.500;2023-03-01T11:24:53;47.21;36.79;57.14;;
72686;Laerm;61365;52.162;4.500;2023-03-01T11:27:29;47.19;36.59;56.98;;
72686;Laerm;61365;52.162;4.500;2023-03-01T11:30:24;47.17;37.22;59.70;;
72686;Laerm;61365;52.162;4.500;2023-03-01T11:35:47;47.27;36.03;56.50;;
72686;Laerm;61365;52.162;4.500;2023-03-01T11:38:23;47.13;37.14;60.90;;
72686;Laerm;61365;52.162;4.500;2023-03-01T11:40:57;47.20;36.76;59.36;;
72686;Laerm;61365;52.162;4.500;2023-03-01T12:07:57;47.33;36.98;57.40;;
72686;Laerm;61365;52.162;4.500;2023-03-01T12:10:42;47.43;36.81;57.77;;
72686;Laerm;61365;52.162;4.500;2023-03-01T12:25:54;47.30;36.93;56.64;;
72686;Laerm;61365;52.162;4.500;2023-03-01T12:40:52;47.24;35.75;57.62;;
72686;Laerm;61365;52.162;4.500;2023-03-01T12:44:01;47.32;36.88;57.37;;
72686;Laerm;61365;52.162;4.500;2023-03-01T12:46:59;47.31;36.51;60.53;;
72686;Laerm;61365;52.162;4.500;2023-03-01T12:49:41;47.08;37.34;58.78;;
72686;Laerm;61365;52.162;4.500;2023-03-01T12:52:23;47.20;37.52;62.48;;
72686;Laerm;61365;52.162;4.500;2023-03-01T12:54:55;47.30;37.38;56.31;;
72686;Laerm;61365;52.162;4.500;2023-03-01T13:00:55;47.38;37.69;56.64;;
72686;Laerm;61365;52.162;4.500;2023-03-01T13:06:47;47.60;37.50;56.58;;
72686;Laerm;61365;52.162;4.500;2023-03-01T13:12:04;47.34;38.03;56.50;;
72686;Laerm;61365;52.162;4.500;2023-03-01T13:14:54;47.52;37.51;56.91;;
72686;Laerm;61365;52.162;4.500;2023-03-01T13:17:41;47.55;37.67;56.39;;
72686;Laerm;61365;52.162;4.500;2023-03-01T13:20:15;47.62;34.15;61.50;;
72686;Laerm;61365;52.162;4.500;2023-03-01T13:23:00;47.58;38.20;60.92;;
72686;Laerm;61365;52.162;4.500;2023-03-01T13:25:27;47.52;37.20;56.94;;
72686;Laerm;61365;52.162;4.500;2023-03-01T13:28:40;47.58;36.87;60.23;;
72686;Laerm;61365;52.162;4.500;2023-03-01T13:33:51;47.50;37.14;55.93;;
72686;Laerm;61365;52.162;4.500;2023-03-01T13:52:35;47.36;37.72;61.14;;
72686;Laerm;61365;52.162;4.500;2023-03-01T13:57:49;47.44;36.45;56.79;;
72686;Laerm;61365;52.162;4.500;2023-03-01T14:00:40;47.36;37.48;57.41;;
72686;Laerm;61365;52.162;4.500;2023-03-01T14:03:17;47.46;37.89;56.94;;
72686;Laerm;61365;52.162;4.500;2023-03-01T14:06:16;47.48;36.49;57.24;;
72686;Laerm;61365;52.162;4.500;2023-03-01T14:08:49;47.49;37.63;56.72;;
72686;Laerm;61365;52.162;4.500;2023-03-01T14:11:53;47.32;37.78;56.78;;
72686;Laerm;61365;52.162;4.500;2023-03-01T14:17:37;47.41;38.08;56.40;;
72686;Laerm;61365;52.162;4.500;2023-03-01T14:22:58;47.47;37.49;55.96;;
72686;Laerm;61365;52.162;4.500;2023-03-01T14:25:31;47.45;37.35;56.40;;
72686;Laerm;61365;52.162;4.500;2023-03-01T14:28:02;47.58;37.33;57.31;;
72686;Laerm;61365;52.162;4.500;2023-03-01T14:30:43;47.55;37.71;57.97;;
72686;Laerm;61365;52.162;4.500;2023-03-01T14:33:36;47.58;34.42;61.91;;
72686;Laerm;61365;52.162;4.500;2023-03-01T14:36:09;47.35;37.83;56.50;;
72686;Laerm;61365;52.162;4.500;2023-03-01T14:38:42;47.56;36.89;59.78;;
72686;Laerm;61365;52.162;4.500;2023-03-01T14:41:15;47.46;36.85;56.75;;
72686;Laerm;61365;52.162;4.500;2023-03-01T14:44:12;47.29;37.72;57.82;;
72686;Laerm;61365;52.162;4.500;2023-03-01T14:46:43;47.52;37.88;57.55;;
72686;Laerm;61365;52.162;4.500;2023-03-01T14:49:16;47.36;37.76;56.40;;
72686;Laerm;61365;52.162;4.500;2023-03-01T14:52:07;47.38;37.45;56.84;;
72686;Laerm;61365;52.162;4.500;2023-03-01T14:54:45;47.51;37.90;56.28;;
72686;Laerm;61365;52.162;4.500;2023-03-01T14:57:21;47.44;37.73;58.96;;
72686;Laerm;61365;52.162;4.500;2023-03-01T15:00:00;47.37;37.02;56.52;;
72686;Laerm;61365;52.162;4.500;2023-03-01T15:02:32;47.43;37.51;56.51;;
72686;Laerm;61365;52.162;4.500;2023-03-01T15:05:03;47.38;37.85;57.67;;
72686;Laerm;61365;52.162;4.500;2023-03-01T15:07:37;47.60;37.56;57.18;;
72686;Laerm;61365;52.162;4.500;2023-03-01T15:10:22;47.17;37.85;56.04;;
72686;Laerm;61365;52.162;4.500;2023-03-01T15:13:36;47.50;37.91;59.28;;
72686;Laerm;61365;52.162;4.500;2023-03-01T15:16:29;47.53;37.44;56.78;;
72686;Laerm;61365;52.162;4.500;2023-03-01T15:19:06;47.48;36.71;55.89;;
72686;Laerm;61365;52.162;4.500;2023-03-01T15:21:44;47.24;37.90;56.82;;
72686;Laerm;61365;52.162;4.500;2023-03-01T15:27:00;47.45;37.19;56.33;;
72686;Laerm;61365;52.162;4.500;2023-03-01T15:29:34;47.40;37.59;56.31;;
72686;Laerm;61365;52.162;4.500;2023-03-01T15:32:34;47.44;37.33;58.08;;
72686;Laerm;61365;52.162;4.500;2023-03-01T15:35:43;47.31;37.11;56.90;;
72686;Laerm;61365;52.162;4.500;2023-03-01T15:38:34;47.39;38.03;60.88;;
72686;Laerm;61365;52.162;4.500;2023-03-01T15:41:29;47.51;37.06;56.05;;
72686;Laerm;61365;52.162;4.500;2023-03-01T15:44:17;47.42;37.23;59.71;;
72686;Laerm;61365;52.162;4.500;2023-03-01T15:46:48;47.61;37.23;59.53;;
72686;Laerm;61365;52.162;4.500;2023-03-01T15:49:39;47.53;37.91;57.00;;
72686;Laerm;61365;52.162;4.500;2023-03-01T15:52:34;47.46;37.32;59.13;;
72686;Laerm;61365;52.162;4.500;2023-03-01T15:55:18;47.49;36.58;60.22;;
72686;Laerm;61365;52.162;4.500;2023-03-01T15:57:46;47.41;36.52;57.93;;
72686;Laerm;61365;52.162;4.500;2023-03-01T16:00:13;47.42;37.39;56.77;;
72686;Laerm;61365;52.162;4.500;2023-03-01T16:02:43;47.36;37.13;59.03;;
72686;Laerm;61365;52.162;4.500;2023-03-01T16:05:28;47.34;37.63;57.52;;
72686;Laerm;61365;52.162;4.500;2023-03-01T16:07:56;47.33;37.46;55.64;;
72686;Laerm;61365;52.162;4.500;2023-03-01T16:10:24;47.47;37.41;56.61;;
72686;Laerm;61365;52.162;4.500;2023-03-01T16:12:51;47.52;36.89;59.28;;
72686;Laerm;61365;52.162;4.500;2023-03-01T16:15:24;47.44;37.92;55.81;;
72686;Laerm;61365;52.162;4.500;2023-03-01T16:17:51;47.38;34.84;62.56;;
72686;Laerm;61365;52.162;4.500;2023-03-01T16:20:18;47.44;37.04;56.62;;
72686;Laerm;61365;52.162;4.500;2023-03-01T16:22:46;47.54;37.19;59.16;;
72686;Laerm;61365;52.162;4.500;2023-03-01T16:25:19;47.13;37.50;56.86;;
72686;Laerm;61365;52.162;4.500;2023-03-01T16:27:49;47.52;37.72;60.05;;